Time;durP1;ratioP1;P1;durP2;ratioP2;P2;SDS_P1;SDS_P2;PMS_P1;PMS_P2;Temp;Humidity;BMP_temperature;BMP_pressure;BME280_temperature;BME280_humidity;BME280_pressure;Samples;Min_cycle;Max_cycle;Signal;HPM_P1;HPM_P2
2023/09/18 00:01:47;;;;;;;825.20;740.88;;;;;;;;;;5081489;28;20051;-64
2023/09/18 00:04:14;;;;;;;813.80;732.67;;;;;;;;;;5099663;28;20051;-61
2023/09/18 00:06:41;;;;;;;826.15;742.17;;;;;;;;;;5092973;28;20129;-61
2023/09/18 00:09:11;;;;;;;817.58;733.05;;;;;;;;;;5100063;28;20035;-62
2023/09/18 00:11:38;;;;;;;816.70;731.83;;;;;;;;;;5098876;28;20120;-63
2023/09/18 00:14:05;;;;;;;826.22;742.22;;;;;;;;;;5078523;28;20044;-61
2023/09/18 00:16:32;;;;;;;802.17;719.30;;;;;;;;;;5081139;28;20129;-61
2023/09/18 00:19:13;;;;;;;800.92;719.22;;;;;;;;;;5099035;28;20044;-62
2023/09/18 00:21:40;;;;;;;808.05;723.75;;;;;;;;;;5095466;28;20122;-61
2023/09/18 00:24:08;;;;;;;799.13;716.22;;;;;;;;;;5099300;28;20044;-62
2023/09/18 00:26:34;;;;;;;813.22;729.28;;;;;;;;;;5080046;28;20040;-61
2023/09/18 00:29:01;;;;;;;795.95;714.13;;;;;;;;;;5096347;28;20040;-61
2023/09/18 00:31:28;;;;;;;800.25;716.92;;;;;;;;;;5081625;28;20054;-61
2023/09/18 00:33:54;;;;;;;800.15;716.60;;;;;;;;;;5077243;28;20043;-62
2023/09/18 00:36:21;;;;;;;801.20;717.17;;;;;;;;;;5077484;28;20125;-60
2023/09/18 00:38:48;;;;;;;803.40;720.80;;;;;;;;;;5095149;28;20044;-60
2023/09/18 00:41:15;;;;;;;805.50;722.45;;;;;;;;;;5058404;28;20052;-62
2023/09/18 00:43:41;;;;;;;794.60;709.22;;;;;;;;;;5095448;28;20104;-64
2023/09/18 00:46:08;;;;;;;783.33;701.35;;;;;;;;;;5095007;28;20044;-61
2023/09/18 00:48:35;;;;;;;782.60;699.38;;;;;;;;;;5075118;28;20107;-61
2023/09/18 00:51:02;;;;;;;781.85;699.42;;;;;;;;;;5077950;28;20082;-66
2023/09/18 00:53:29;;;;;;;777.00;695.75;;;;;;;;;;5094096;28;20047;-61
2023/09/18 00:55:57;;;;;;;795.78;712.40;;;;;;;;;;5096453;28;20078;-61
2023/09/18 00:58:24;;;;;;;776.35;694.97;;;;;;;;;;5062380;28;20062;-61
2023/09/18 01:00:52;;;;;;;780.13;696.92;;;;;;;;;;5076505;28;20056;-61
2023/09/18 01:03:20;;;;;;;781.83;698.35;;;;;;;;;;5078598;28;22098;-63
2023/09/18 01:05:47;;;;;;;769.78;689.85;;;;;;;;;;5078411;28;20065;-61
2023/09/18 01:08:14;;;;;;;775.42;694.00;;;;;;;;;;5077223;28;20416;-62
2023/09/18 01:10:48;;;;;;;783.92;699.58;;;;;;;;;;5079529;28;20447;-60
2023/09/18 01:13:21;;;;;;;764.60;683.75;;;;;;;;;;5082733;28;20139;-62
2023/09/18 01:16:06;;;;;;;755.13;674.70;;;;;;;;;;5076846;28;20143;-62
2023/09/18 01:18:33;;;;;;;765.72;683.58;;;;;;;;;;5069248;28;20044;-61
2023/09/18 01:20:59;;;;;;;753.78;672.08;;;;;;;;;;5097369;28;20048;-67
2023/09/18 01:23:26;;;;;;;750.88;671.00;;;;;;;;;;5072862;28;20606;-61
2023/09/18 01:25:53;;;;;;;758.90;676.20;;;;;;;;;;5090275;28;20075;-61
2023/09/18 01:28:19;;;;;;;757.97;676.67;;;;;;;;;;5098452;28;20063;-61
2023/09/18 01:30:46;;;;;;;745.78;664.42;;;;;;;;;;5095453;28;20051;-62
2023/09/18 01:33:13;;;;;;;775.28;668.45;;;;;;;;;;5098157;28;20042;-62
2023/09/18 01:35:40;;;;;;;755.33;673.70;;;;;;;;;;5096613;28;20477;-60
2023/09/18 01:38:10;;;;;;;752.78;670.95;;;;;;;;;;5079348;28;20412;-63
2023/09/18 01:40:37;;;;;;;755.72;672.05;;;;;;;;;;5077157;28;20052;-63
2023/09/18 01:43:04;;;;;;;743.72;663.53;;;;;;;;;;5096753;28;20040;-61
2023/09/18 01:45:31;;;;;;;741.40;659.47;;;;;;;;;;5094321;28;20044;-65
2023/09/18 01:47:58;;;;;;;752.15;670.17;;;;;;;;;;5099127;28;20040;-61
2023/09/18 01:50:25;;;;;;;729.58;647.85;;;;;;;;;;5095230;28;20123;-63
2023/09/18 01:52:52;;;;;;;741.05;658.10;;;;;;;;;;5078732;28;20072;-62
2023/09/18 01:55:18;;;;;;;738.17;657.85;;;;;;;;;;5099303;28;20039;-66
2023/09/18 01:57:45;;;;;;;754.28;673.15;;;;;;;;;;5075794;28;20131;-62
2023/09/18 02:00:13;;;;;;;752.85;667.33;;;;;;;;;;5082648;28;20050;-61
2023/09/18 02:03:05;;;;;;;;;;;;;;;;;;5025042;22;20109;-64
2023/09/18 02:05:49;;;;;;;737.17;655.40;;;;;;;;;;5065436;28;20551;-65
2023/09/18 02:08:15;;;;;;;741.47;660.40;;;;;;;;;;5044587;28;20071;-64
2023/09/18 02:10:42;;;;;;;760.45;663.67;;;;;;;;;;5050661;28;20048;-64
2023/09/18 02:13:10;;;;;;;736.33;656.08;;;;;;;;;;5046936;28;20523;-64
2023/09/18 02:15:37;;;;;;;747.40;666.40;;;;;;;;;;5027008;28;20052;-64
2023/09/18 02:18:05;;;;;;;744.47;663.05;;;;;;;;;;5053915;28;20094;-69
2023/09/18 02:20:40;;;;;;;749.72;667.40;;;;;;;;;;5046966;28;20478;-64
2023/09/18 02:23:06;;;;;;;753.97;672.78;;;;;;;;;;5049991;28;20135;-62
2023/09/18 02:25:33;;;;;;;761.33;678.63;;;;;;;;;;5059848;28;20041;-65
2023/09/18 02:28:00;;;;;;;736.58;655.50;;;;;;;;;;5072145;28;20045;-64
2023/09/18 02:30:26;;;;;;;744.40;664.08;;;;;;;;;;5054507;28;20400;-64
2023/09/18 02:32:53;;;;;;;736.72;657.47;;;;;;;;;;5046311;28;20556;-65
2023/09/18 02:35:20;;;;;;;750.13;668.63;;;;;;;;;;5050360;28;20049;-62
2023/09/18 02:37:47;;;;;;;775.47;673.05;;;;;;;;;;5072086;28;20044;-64
2023/09/18 02:40:13;;;;;;;741.17;660.42;;;;;;;;;;5051058;28;20081;-66
2023/09/18 02:42:40;;;;;;;734.60;655.20;;;;;;;;;;5072171;28;20535;-63
2023/09/18 02:45:08;;;;;;;732.47;654.10;;;;;;;;;;5046272;28;20037;-64
2023/09/18 02:47:37;;;;;;;751.00;665.97;;;;;;;;;;5048694;28;20076;-64
2023/09/18 02:50:05;;;;;;;737.97;657.40;;;;;;;;;;5062757;28;20094;-66
2023/09/18 02:52:32;;;;;;;734.78;655.28;;;;;;;;;;5051564;28;20037;-70
2023/09/18 02:54:58;;;;;;;738.88;657.70;;;;;;;;;;5054652;28;20049;-65
2023/09/18 02:57:25;;;;;;;734.38;654.00;;;;;;;;;;5049948;28;20048;-64
2023/09/18 02:59:52;;;;;;;739.05;658.50;;;;;;;;;;5053998;28;20047;-64
2023/09/18 03:02:18;;;;;;;736.20;655.20;;;;;;;;;;5061945;28;20052;-65
2023/09/18 03:04:45;;;;;;;752.63;667.15;;;;;;;;;;5054451;28;20056;-64
2023/09/18 03:07:13;;;;;;;746.65;666.38;;;;;;;;;;5054004;28;20075;-62
2023/09/18 03:09:39;;;;;;;750.35;670.58;;;;;;;;;;5066848;28;20408;-65
2023/09/18 03:12:06;;;;;;;732.50;653.80;;;;;;;;;;5054151;28;20060;-63
2023/09/18 03:14:33;;;;;;;738.92;659.40;;;;;;;;;;5072213;28;20060;-65
2023/09/18 03:16:59;;;;;;;754.00;670.20;;;;;;;;;;5051351;28;20052;-65
2023/09/18 03:19:26;;;;;;;753.38;672.30;;;;;;;;;;5046214;28;20156;-63
2023/09/18 03:21:53;;;;;;;742.97;663.42;;;;;;;;;;5054628;28;20489;-64
2023/09/18 03:24:20;;;;;;;742.15;662.47;;;;;;;;;;5044854;28;20127;-63
2023/09/18 03:26:47;;;;;;;751.13;670.40;;;;;;;;;;5049917;28;20548;-64
2023/09/18 03:29:13;;;;;;;745.58;664.85;;;;;;;;;;5034773;28;20394;-64
2023/09/18 03:31:40;;;;;;;755.45;673.47;;;;;;;;;;5044239;28;20055;-63
2023/09/18 03:34:07;;;;;;;749.22;669.85;;;;;;;;;;5063040;28;20048;-62
2023/09/18 03:36:36;;;;;;;751.90;672.38;;;;;;;;;;5043694;28;20049;-66
2023/09/18 03:39:04;;;;;;;761.42;678.08;;;;;;;;;;5043008;28;20041;-61
2023/09/18 03:41:33;;;;;;;756.13;675.63;;;;;;;;;;5052577;28;20052;-63
2023/09/18 03:44:01;;;;;;;745.97;666.10;;;;;;;;;;5036657;28;20040;-62
2023/09/18 03:46:28;;;;;;;759.85;678.80;;;;;;;;;;5053447;28;20072;-62
2023/09/18 03:48:57;;;;;;;755.28;675.15;;;;;;;;;;5045475;28;20139;-66
2023/09/18 03:51:24;;;;;;;771.95;689.83;;;;;;;;;;5053194;28;20037;-65
2023/09/18 03:53:51;;;;;;;755.40;673.83;;;;;;;;;;5063117;28;20094;-63
2023/09/18 03:56:18;;;;;;;754.72;673.72;;;;;;;;;;5046209;28;20045;-60
2023/09/18 03:58:49;;;;;;;773.75;689.75;;;;;;;;;;5053490;28;20060;-63
2023/09/18 04:01:16;;;;;;;775.88;687.03;;;;;;;;;;5070314;28;20119;-64
2023/09/18 04:03:43;;;;;;;752.90;673.15;;;;;;;;;;5071306;28;20135;-63
2023/09/18 04:06:10;;;;;;;766.30;686.60;;;;;;;;;;5070927;28;20102;-65
2023/09/18 04:08:37;;;;;;;755.58;675.63;;;;;;;;;;5044858;28;20052;-65
2023/09/18 04:11:04;;;;;;;767.97;685.50;;;;;;;;;;5067427;28;20449;-67
2023/09/18 04:13:31;;;;;;;762.10;681.05;;;;;;;;;;5072433;28;20489;-64
2023/09/18 04:16:00;;;;;;;766.42;685.88;;;;;;;;;;5071154;28;20056;-65
2023/09/18 04:18:27;;;;;;;763.53;683.97;;;;;;;;;;5036497;28;20440;-63
2023/09/18 04:20:54;;;;;;;775.35;694.20;;;;;;;;;;5071046;28;20063;-64
2023/09/18 04:23:21;;;;;;;778.58;696.05;;;;;;;;;;5065946;28;20551;-65
2023/09/18 04:25:49;;;;;;;784.55;701.13;;;;;;;;;;5061839;28;20131;-65
2023/09/18 04:28:17;;;;;;;770.25;689.95;;;;;;;;;;5065904;28;20052;-64
2023/09/18 04:30:44;;;;;;;785.03;703.25;;;;;;;;;;5052503;28;20070;-65
2023/09/18 04:33:12;;;;;;;781.38;700.05;;;;;;;;;;5063772;28;20090;-63
2023/09/18 04:35:39;;;;;;;775.42;694.13;;;;;;;;;;5046169;28;20389;-63
2023/09/18 04:38:08;;;;;;;775.00;693.22;;;;;;;;;;5052514;28;20058;-62
2023/09/18 04:40:35;;;;;;;780.88;698.72;;;;;;;;;;5070127;28;20044;-65
2023/09/18 04:43:04;;;;;;;784.42;702.75;;;;;;;;;;5063759;28;20067;-63
2023/09/18 04:45:31;;;;;;;782.45;701.05;;;;;;;;;;5044089;28;20064;-62
2023/09/18 04:47:58;;;;;;;787.20;704.70;;;;;;;;;;5035720;28;20128;-62
2023/09/18 04:50:26;;;;;;;772.60;691.17;;;;;;;;;;5051988;28;20397;-67
2023/09/18 04:52:54;;;;;;;802.17;717.78;;;;;;;;;;5043834;28;20174;-64
2023/09/18 04:55:21;;;;;;;795.65;711.47;;;;;;;;;;5068624;28;20049;-63
2023/09/18 04:57:48;;;;;;;796.42;714.17;;;;;;;;;;5033964;28;20132;-67
2023/09/18 05:00:16;;;;;;;793.00;708.50;;;;;;;;;;5051624;28;20056;-64
2023/09/18 05:02:48;;;;;;;792.00;709.88;;;;;;;;;;5027942;28;20139;-62
2023/09/18 05:05:15;;;;;;;790.70;707.25;;;;;;;;;;5051667;28;20041;-63
2023/09/18 05:07:42;;;;;;;792.15;707.90;;;;;;;;;;5051959;28;20068;-65
2023/09/18 05:10:09;;;;;;;794.55;712.38;;;;;;;;;;5071022;28;20076;-63
2023/09/18 05:12:37;;;;;;;809.95;726.63;;;;;;;;;;5068452;28;20044;-62
2023/09/18 05:15:04;;;;;;;813.22;729.50;;;;;;;;;;5060699;28;20045;-65
2023/09/18 05:17:42;;;;;;;792.15;710.05;;;;;;;;;;5070084;28;20041;-64
2023/09/18 05:20:11;;;;;;;780.17;700.60;;;;;;;;;;5069861;28;20486;-61
2023/09/18 05:22:38;;;;;;;817.28;731.42;;;;;;;;;;5051693;28;20559;-63
2023/09/18 05:25:06;;;;;;;813.03;727.92;;;;;;;;;;5069163;28;20043;-65
2023/09/18 05:27:33;;;;;;;818.53;734.63;;;;;;;;;;5041505;28;20056;-62
2023/09/18 05:30:00;;;;;;;815.70;733.08;;;;;;;;;;5049884;28;20051;-65
2023/09/18 05:32:27;;;;;;;828.22;744.25;;;;;;;;;;5068313;28;20044;-63
2023/09/18 05:34:53;;;;;;;832.58;745.78;;;;;;;;;;5068852;28;20397;-64
2023/09/18 05:37:22;;;;;;;816.53;733.28;;;;;;;;;;5070079;28;20046;-64
2023/09/18 05:39:48;;;;;;;823.83;740.45;;;;;;;;;;5068739;28;20044;-62
2023/09/18 05:42:15;;;;;;;827.72;743.28;;;;;;;;;;5047342;28;20140;-65
2023/09/18 05:44:42;;;;;;;829.78;746.72;;;;;;;;;;5045269;28;20033;-62
2023/09/18 05:47:09;;;;;;;852.75;768.10;;;;;;;;;;5058789;28;20052;-64
2023/09/18 05:49:36;;;;;;;856.95;770.45;;;;;;;;;;5069328;28;20048;-65
2023/09/18 05:52:03;;;;;;;847.80;763.00;;;;;;;;;;5067197;28;20498;-66
2023/09/18 05:54:30;;;;;;;851.42;767.00;;;;;;;;;;5052102;28;20120;-64
2023/09/18 05:56:56;;;;;;;858.05;774.25;;;;;;;;;;5051055;28;20147;-64
2023/09/18 05:59:23;;;;;;;871.38;785.42;;;;;;;;;;5055535;28;20735;-63
2023/09/18 06:01:50;;;;;;;946.90;779.03;;;;;;;;;;5072888;28;20044;-65
2023/09/18 06:04:17;;;;;;;866.75;779.00;;;;;;;;;;5068581;28;20047;-63
2023/09/18 06:06:44;;;;;;;883.67;798.70;;;;;;;;;;5050673;28;20040;-64
2023/09/18 06:09:11;;;;;;;873.05;788.13;;;;;;;;;;5073616;28;20072;-63
2023/09/18 06:11:37;;;;;;;871.58;787.63;;;;;;;;;;5070065;28;20049;-66
2023/09/18 06:14:04;;;;;;;881.45;796.05;;;;;;;;;;5069654;28;20491;-64
2023/09/18 06:16:31;;;;;;;907.70;820.92;;;;;;;;;;5044468;28;20051;-66
2023/09/18 06:18:59;;;;;;;919.60;827.95;;;;;;;;;;5070514;28;20485;-68
2023/09/18 06:21:26;;;;;;;1999.90;907.55;;;;;;;;;;5067686;28;20044;-64
2023/09/18 06:23:53;;;;;;;1005.10;835.05;;;;;;;;;;5067363;28;20067;-63
2023/09/18 06:26:19;;;;;;;951.75;856.33;;;;;;;;;;5072762;28;20439;-63
2023/09/18 06:28:46;;;;;;;970.50;878.10;;;;;;;;;;5055061;28;20053;-64
2023/09/18 06:31:13;;;;;;;963.33;872.67;;;;;;;;;;5049051;28;20110;-67
2023/09/18 06:33:40;;;;;;;959.53;870.50;;;;;;;;;;5062036;28;20045;-64
2023/09/18 06:36:06;;;;;;;1031.70;899.55;;;;;;;;;;5073154;28;20044;-64
2023/09/18 06:38:33;;;;;;;987.50;897.70;;;;;;;;;;5047672;28;20036;-63
2023/09/18 06:41:00;;;;;;;1021.20;927.85;;;;;;;;;;5072411;28;20048;-64
2023/09/18 06:43:26;;;;;;;1048.55;955.15;;;;;;;;;;5073579;28;20085;-63
2023/09/18 06:45:53;;;;;;;1999.90;978.75;;;;;;;;;;5070899;28;20072;-64
2023/09/18 06:48:21;;;;;;;1083.47;980.97;;;;;;;;;;5046024;28;20040;-63
2023/09/18 06:50:48;;;;;;;1100.75;994.65;;;;;;;;;;5047640;28;20036;-68
2023/09/18 06:53:15;;;;;;;1125.63;999.05;;;;;;;;;;5071653;28;20045;-63
2023/09/18 06:55:42;;;;;;;1129.00;999.90;;;;;;;;;;5041619;28;20060;-64
2023/09/18 06:58:09;;;;;;;1113.82;999.90;;;;;;;;;;5073483;28;20045;-63
2023/09/18 07:00:36;;;;;;;1115.75;999.90;;;;;;;;;;5044263;28;20048;-63
2023/09/18 07:03:03;;;;;;;1139.75;999.90;;;;;;;;;;5050429;28;20088;-61
2023/09/18 07:05:30;;;;;;;1999.90;973.35;;;;;;;;;;5047001;28;20098;-62
2023/09/18 07:07:57;;;;;;;1999.90;974.38;;;;;;;;;;5054094;28;20135;-63
2023/09/18 07:10:24;;;;;;;1999.90;999.90;;;;;;;;;;5055350;28;20037;-62
2023/09/18 07:12:51;;;;;;;1999.90;999.90;;;;;;;;;;5033841;28;20052;-63
2023/09/18 07:15:19;;;;;;;1086.70;978.45;;;;;;;;;;5053393;28;20135;-66
2023/09/18 07:17:48;;;;;;;1999.90;975.65;;;;;;;;;;5071535;28;20098;-65
2023/09/18 07:20:15;;;;;;;1999.90;957.50;;;;;;;;;;5049465;28;20059;-63
2023/09/18 07:22:47;;;;;;;1185.95;964.08;;;;;;;;;;5049228;28;20056;-64
2023/09/18 07:25:14;;;;;;;1999.90;957.55;;;;;;;;;;5051392;28;20060;-61
2023/09/18 07:27:44;;;;;;;1999.90;996.65;;;;;;;;;;5052258;28;20050;-63
2023/09/18 07:30:11;;;;;;;1071.53;955.17;;;;;;;;;;5072799;28;20047;-64
2023/09/18 07:32:42;;;;;;;1045.35;950.00;;;;;;;;;;5054192;28;20074;-63
2023/09/18 07:35:09;;;;;;;1053.22;955.40;;;;;;;;;;5052396;28;20128;-66
2023/09/18 07:37:36;;;;;;;1036.15;944.17;;;;;;;;;;5073236;28;20508;-67
2023/09/18 07:40:04;;;;;;;1038.65;946.15;;;;;;;;;;5054285;28;20056;-64
2023/09/18 07:42:30;;;;;;;1042.85;950.63;;;;;;;;;;5050749;28;20041;-66
2023/09/18 07:44:58;;;;;;;1042.50;949.70;;;;;;;;;;5046353;28;20041;-63
2023/09/18 07:47:25;;;;;;;1034.78;942.45;;;;;;;;;;5072447;28;20040;-62
2023/09/18 07:49:54;;;;;;;1034.75;940.58;;;;;;;;;;5054227;28;20048;-61
2023/09/18 07:52:20;;;;;;;1999.90;995.47;;;;;;;;;;5069985;28;20090;-64
2023/09/18 07:54:47;;;;;;;1042.78;929.05;;;;;;;;;;5054310;28;20090;-65
2023/09/18 07:57:15;;;;;;;1040.07;928.17;;;;;;;;;;5071797;28;20543;-65
2023/09/18 07:59:42;;;;;;;1028.72;935.05;;;;;;;;;;5053823;28;20040;-62
2023/09/18 08:02:09;;;;;;;1028.35;934.28;;;;;;;;;;5071334;28;20489;-65
2023/09/18 08:04:36;;;;;;;1030.47;939.78;;;;;;;;;;5062575;28;20076;-66
2023/09/18 08:07:05;;;;;;;1036.18;943.85;;;;;;;;;;5062979;28;20044;-62
2023/09/18 08:09:36;;;;;;;1022.50;932.78;;;;;;;;;;5046282;28;20045;-63
2023/09/18 08:12:03;;;;;;;1024.70;932.28;;;;;;;;;;5071721;28;20032;-63
2023/09/18 08:14:30;;;;;;;1020.90;930.33;;;;;;;;;;5071193;28;20094;-64
2023/09/18 08:16:57;;;;;;;1035.35;942.72;;;;;;;;;;5045117;28;20064;-62
2023/09/18 08:19:27;;;;;;;1029.40;938.72;;;;;;;;;;5054746;28;20075;-63
2023/09/18 08:21:54;;;;;;;1028.10;937.35;;;;;;;;;;5071310;28;20083;-62
2023/09/18 08:24:21;;;;;;;1031.03;940.95;;;;;;;;;;5049441;28;20053;-63
2023/09/18 08:26:47;;;;;;;1038.50;946.83;;;;;;;;;;5071052;28;20037;-62
2023/09/18 08:29:15;;;;;;;1039.10;947.33;;;;;;;;;;5047141;28;20040;-63
2023/09/18 08:31:42;;;;;;;1045.07;949.97;;;;;;;;;;5053176;28;20046;-62
2023/09/18 08:34:08;;;;;;;1032.55;942.53;;;;;;;;;;5071881;28;20131;-62
2023/09/18 08:36:35;;;;;;;1031.25;940.33;;;;;;;;;;5047362;28;20048;-62
2023/09/18 08:39:05;;;;;;;1040.10;946.38;;;;;;;;;;5070781;28;20620;-62
2023/09/18 08:41:32;;;;;;;1039.18;947.25;;;;;;;;;;5053283;28;20047;-65
2023/09/18 08:44:00;;;;;;;1040.43;946.80;;;;;;;;;;5070030;28;20071;-62
2023/09/18 08:46:27;;;;;;;1042.93;950.78;;;;;;;;;;5053638;28;20060;-62
2023/09/18 08:48:59;;;;;;;1041.30;948.85;;;;;;;;;;5071047;28;20472;-64
2023/09/18 08:51:27;;;;;;;1051.43;957.88;;;;;;;;;;5052789;28;20536;-64
2023/09/18 08:53:54;;;;;;;1051.97;958.17;;;;;;;;;;5052837;28;20494;-61
2023/09/18 08:56:22;;;;;;;1052.95;959.45;;;;;;;;;;5071087;28;20091;-63
2023/09/18 08:58:49;;;;;;;1047.95;953.42;;;;;;;;;;5044507;28;20048;-63
2023/09/18 09:01:16;;;;;;;1066.13;959.08;;;;;;;;;;5065421;28;20054;-63
2023/09/18 09:03:45;;;;;;;1058.95;967.55;;;;;;;;;;5070443;28;20405;-66
2023/09/18 09:06:12;;;;;;;1046.30;955.58;;;;;;;;;;5069960;28;20098;-64
2023/09/18 09:08:39;;;;;;;1056.68;964.97;;;;;;;;;;5070576;28;20056;-62
2023/09/18 09:11:05;;;;;;;1066.70;962.55;;;;;;;;;;5066472;28;20064;-63
2023/09/18 09:13:32;;;;;;;1059.32;966.78;;;;;;;;;;5067656;28;20498;-64
2023/09/18 09:16:12;;;;;;;1053.43;961.05;;;;;;;;;;5070090;28;20049;-62
2023/09/18 09:18:49;;;;;;;1052.10;959.05;;;;;;;;;;5071084;28;20466;-61
2023/09/18 09:21:17;;;;;;;1053.65;961.78;;;;;;;;;;5070317;28;20040;-62
2023/09/18 09:23:53;;;;;;;1063.40;969.92;;;;;;;;;;5070111;28;20546;-64
2023/09/18 09:26:22;;;;;;;1067.00;973.20;;;;;;;;;;5051754;28;20048;-60
2023/09/18 09:28:49;;;;;;;1075.18;978.15;;;;;;;;;;5052808;28;20659;-63
2023/09/18 09:31:24;;;;;;;1067.00;972.42;;;;;;;;;;5061739;28;20048;-64
2023/09/18 09:33:58;;;;;;;1065.35;972.25;;;;;;;;;;5052344;28;20452;-61
2023/09/18 09:36:25;;;;;;;1068.00;975.97;;;;;;;;;;5045626;28;20489;-64
2023/09/18 09:38:57;;;;;;;1071.13;977.00;;;;;;;;;;5047826;28;20552;-63
2023/09/18 09:41:27;;;;;;;1075.95;980.13;;;;;;;;;;5066155;28;20032;-64
2023/09/18 09:43:55;;;;;;;1081.95;984.33;;;;;;;;;;5041088;28;20048;-64
2023/09/18 09:46:25;;;;;;;1075.97;981.28;;;;;;;;;;5051986;28;20041;-60
2023/09/18 09:48:59;;;;;;;1081.25;989.00;;;;;;;;;;5051317;28;20032;-61
2023/09/18 09:51:26;;;;;;;1076.22;980.25;;;;;;;;;;5030009;28;20501;-62
2023/09/18 09:53:53;;;;;;;1082.65;982.85;;;;;;;;;;5070233;28;20041;-61
2023/09/18 09:56:21;;;;;;;1091.55;996.08;;;;;;;;;;5069840;28;20033;-63
2023/09/18 09:59:05;;;;;;;1097.40;998.25;;;;;;;;;;5049432;28;20049;-62
2023/09/18 10:01:33;;;;;;;1090.00;995.53;;;;;;;;;;5049230;28;20126;-64
2023/09/18 10:04:07;;;;;;;1090.15;995.08;;;;;;;;;;5055154;28;20098;-63
2023/09/18 10:06:34;;;;;;;1095.18;997.78;;;;;;;;;;5051627;28;20033;-62
2023/09/18 10:09:07;;;;;;;1102.55;999.90;;;;;;;;;;5069665;28;20059;-62
2023/09/18 10:11:36;;;;;;;;;;;;;;;;;;5044407;28;20142;-61
2023/09/18 10:14:16;;;;;;;1089.35;993.63;;;;;;;;;;5059649;28;19928;-65
2023/09/18 10:16:47;;;;;;;1101.80;998.53;;;;;;;;;;5050583;28;20477;-66
2023/09/18 10:19:25;;;;;;;1110.03;999.90;;;;;;;;;;5032568;28;20049;-67
2023/09/18 10:21:52;;;;;;;1105.90;999.90;;;;;;;;;;5070108;28;20044;-61
2023/09/18 10:24:25;;;;;;;1094.95;998.20;;;;;;;;;;5069623;28;20117;-64
2023/09/18 10:26:56;;;;;;;1112.32;999.90;;;;;;;;;;5069507;28;20114;-61
2023/09/18 10:29:24;;;;;;;1114.03;999.90;;;;;;;;;;5052138;28;20040;-61
2023/09/18 10:31:52;;;;;;;1133.63;999.90;;;;;;;;;;5068966;28;20046;-63
2023/09/18 10:34:19;;;;;;;1122.40;999.90;;;;;;;;;;5069277;28;20071;-62
2023/09/18 10:36:46;;;;;;;1123.47;999.90;;;;;;;;;;5043420;28;20095;-66
2023/09/18 10:39:19;;;;;;;1129.63;999.90;;;;;;;;;;5067838;28;20127;-64
2023/09/18 10:41:47;;;;;;;1127.82;999.90;;;;;;;;;;5054244;28;20071;-65
2023/09/18 10:44:14;;;;;;;1119.63;999.90;;;;;;;;;;5054078;28;20416;-63
2023/09/18 10:46:40;;;;;;;1120.43;999.90;;;;;;;;;;5066580;28;20033;-69
2023/09/18 10:49:07;;;;;;;1116.05;999.90;;;;;;;;;;5072486;28;20052;-63
2023/09/18 10:51:34;;;;;;;1126.35;999.90;;;;;;;;;;5073122;28;20087;-64
2023/09/18 10:54:01;;;;;;;1136.90;999.90;;;;;;;;;;5072950;28;20083;-61
2023/09/18 10:56:28;;;;;;;1133.15;999.90;;;;;;;;;;5068786;28;20044;-65
2023/09/18 10:59:02;;;;;;;1139.53;999.90;;;;;;;;;;5073020;28;20486;-63
2023/09/18 11:01:32;;;;;;;1128.85;999.90;;;;;;;;;;5055249;28;20068;-62
2023/09/18 11:04:10;;;;;;;1129.05;999.90;;;;;;;;;;5051532;28;20460;-62
2023/09/18 11:06:55;;;;;;;1127.25;999.90;;;;;;;;;;5033029;28;20060;-63
2023/09/18 11:09:24;;;;;;;1122.35;999.90;;;;;;;;;;5073479;28;20040;-63
2023/09/18 11:11:57;;;;;;;1139.13;999.90;;;;;;;;;;5072302;28;20049;-62
2023/09/18 11:14:41;;;;;;;1132.05;999.90;;;;;;;;;;5069109;28;20065;-63
2023/09/18 11:17:27;;;;;;;1134.22;999.90;;;;;;;;;;5068736;28;20036;-61
2023/09/18 11:20:13;;;;;;;1133.03;999.90;;;;;;;;;;5046760;28;20077;-62
2023/09/18 11:22:45;;;;;;;1128.05;999.90;;;;;;;;;;5072544;28;20417;-63
2023/09/18 11:25:31;;;;;;;1130.07;999.90;;;;;;;;;;5054832;28;20045;-66
2023/09/18 11:27:57;;;;;;;1135.22;999.90;;;;;;;;;;5071504;28;20305;-61
2023/09/18 11:30:24;;;;;;;1137.70;999.90;;;;;;;;;;5050824;28;20048;-62
2023/09/18 11:32:52;;;;;;;1138.88;999.90;;;;;;;;;;5065438;28;20433;-64
2023/09/18 11:35:19;;;;;;;1146.85;999.90;;;;;;;;;;5069608;28;20048;-61
2023/09/18 11:37:45;;;;;;;1143.63;999.90;;;;;;;;;;5068802;28;20062;-66
2023/09/18 11:40:44;;;;;;;1133.43;999.90;;;;;;;;;;5069636;28;20405;-62
2023/09/18 11:43:39;;;;;;;1140.97;999.90;;;;;;;;;;5054221;28;20059;-60
2023/09/18 11:46:55;;;;;;;1145.57;999.90;;;;;;;;;;5069258;28;20413;-64
2023/09/18 11:49:23;;;;;;;1145.35;999.90;;;;;;;;;;5061029;28;20045;-60
2023/09/18 11:51:50;;;;;;;1138.07;999.90;;;;;;;;;;5070794;28;20444;-63
2023/09/18 11:54:17;;;;;;;1136.50;999.90;;;;;;;;;;5053082;28;20044;-62
2023/09/18 11:56:44;;;;;;;1127.57;999.90;;;;;;;;;;5070680;28;20086;-62
2023/09/18 11:59:12;;;;;;;1152.93;999.90;;;;;;;;;;5069933;28;20048;-61
2023/09/18 12:01:46;;;;;;;1131.43;999.90;;;;;;;;;;5021300;28;20064;-62
2023/09/18 12:04:13;;;;;;;1133.78;999.90;;;;;;;;;;5042669;28;20048;-62
2023/09/18 12:06:41;;;;;;;1129.20;999.90;;;;;;;;;;5051954;28;20048;-60
2023/09/18 12:09:08;;;;;;;1140.68;999.90;;;;;;;;;;5040918;28;20037;-61
2023/09/18 12:11:35;;;;;;;1141.07;999.90;;;;;;;;;;5065631;28;20041;-63
2023/09/18 12:14:04;;;;;;;1146.25;999.90;;;;;;;;;;5070286;28;20068;-60
2023/09/18 12:16:38;;;;;;;1136.65;999.90;;;;;;;;;;5053988;28;20049;-61
2023/09/18 12:19:06;;;;;;;1133.28;999.90;;;;;;;;;;5071133;28;20097;-65
2023/09/18 12:21:39;;;;;;;1143.72;999.90;;;;;;;;;;5065295;28;20097;-64
2023/09/18 12:24:06;;;;;;;1999.90;996.08;;;;;;;;;;5047672;28;20036;-65
2023/09/18 12:26:33;;;;;;;1135.70;999.90;;;;;;;;;;5070857;28;20098;-65
2023/09/18 12:29:00;;;;;;;1146.38;999.90;;;;;;;;;;5052203;28;20048;-61
2023/09/18 12:31:27;;;;;;;1134.82;999.90;;;;;;;;;;5071051;28;20086;-58
2023/09/18 12:33:53;;;;;;;1130.28;999.90;;;;;;;;;;5048641;28;20080;-59
2023/09/18 12:36:21;;;;;;;1134.50;999.90;;;;;;;;;;5044557;28;20045;-63
2023/09/18 12:38:57;;;;;;;1131.95;999.90;;;;;;;;;;5046146;28;20059;-60
2023/09/18 12:41:25;;;;;;;1132.15;999.90;;;;;;;;;;5051496;28;20053;-58
2023/09/18 12:43:57;;;;;;;1146.10;999.90;;;;;;;;;;5068933;28;20622;-59
2023/09/18 12:46:24;;;;;;;1143.57;999.90;;;;;;;;;;5053091;28;20045;-59
2023/09/18 12:48:51;;;;;;;1142.70;999.90;;;;;;;;;;5044816;28;20533;-60
2023/09/18 12:51:22;;;;;;;1134.68;999.90;;;;;;;;;;5051715;28;20127;-60
2023/09/18 12:53:58;;;;;;;1140.60;999.90;;;;;;;;;;5044892;28;20040;-60
2023/09/18 12:56:25;;;;;;;1140.05;999.90;;;;;;;;;;5048693;28;20569;-62
2023/09/18 12:58:52;;;;;;;1140.22;999.90;;;;;;;;;;5068174;28;20055;-60
2023/09/18 13:01:38;;;;;;;1135.60;999.90;;;;;;;;;;5051398;28;20056;-60
2023/09/18 13:04:05;;;;;;;1135.07;999.90;;;;;;;;;;5052063;28;20044;-61
2023/09/18 13:06:35;;;;;;;1136.68;999.90;;;;;;;;;;5069875;28;20080;-60
2023/09/18 13:09:19;;;;;;;1153.53;999.90;;;;;;;;;;5070219;28;20482;-61
2023/09/18 13:11:56;;;;;;;1145.30;999.90;;;;;;;;;;5070268;28;20029;-62
2023/09/18 13:14:23;;;;;;;1144.20;999.90;;;;;;;;;;5066838;28;20052;-60
2023/09/18 13:16:50;;;;;;;1157.70;999.90;;;;;;;;;;5069498;28;20044;-62
2023/09/18 13:19:17;;;;;;;1154.05;999.90;;;;;;;;;;5071041;28;20048;-62
2023/09/18 13:21:50;;;;;;;1148.63;999.90;;;;;;;;;;5066910;28;20041;-62
2023/09/18 13:24:28;;;;;;;1148.30;999.90;;;;;;;;;;5046369;28;20135;-61
2023/09/18 13:26:56;;;;;;;1165.80;999.90;;;;;;;;;;5043906;28;20041;-61
2023/09/18 13:29:23;;;;;;;1158.28;999.90;;;;;;;;;;5052179;28;20052;-63
2023/09/18 13:31:51;;;;;;;1169.65;999.90;;;;;;;;;;5068239;28;20135;-61
2023/09/18 13:34:18;;;;;;;1148.65;999.90;;;;;;;;;;5053025;28;20055;-61
2023/09/18 13:36:45;;;;;;;1157.90;999.90;;;;;;;;;;5051585;28;20037;-62
2023/09/18 13:39:12;;;;;;;1155.00;999.90;;;;;;;;;;5069405;28;20047;-61
2023/09/18 13:41:41;;;;;;;1146.13;999.90;;;;;;;;;;5048302;28;20040;-61
2023/09/18 13:44:07;;;;;;;1145.05;999.90;;;;;;;;;;5052243;28;20072;-62
2023/09/18 13:46:36;;;;;;;1146.10;999.90;;;;;;;;;;5052943;28;20099;-61
2023/09/18 13:49:06;;;;;;;1154.78;999.90;;;;;;;;;;5047324;28;20111;-61
2023/09/18 13:51:33;;;;;;;1153.97;999.90;;;;;;;;;;5051527;28;20091;-61
2023/09/18 13:53:59;;;;;;;1139.75;999.90;;;;;;;;;;5035083;28;20106;-60
2023/09/18 13:56:27;;;;;;;1150.22;999.90;;;;;;;;;;5069729;28;20115;-62